Time;durP1;ratioP1;P1;durP2;ratioP2;P2;SDS_P1;SDS_P2;PMS_P1;PMS_P2;Temp;Humidity;BMP_temperature;BMP_pressure;BME280_temperature;BME280_humidity;BME280_pressure;Samples;Min_cycle;Max_cycle;Signal;HPM_P1;HPM_P2
2022/07/03 00:01:43;;;;;;;4.13;3.67;;;17.10;99.90;;;;;;2603054;54;20026;31
2022/07/03 00:04:18;;;;;;;6.97;4.00;;;16.90;99.90;;;;;;2603519;54;20871;31
2022/07/03 00:06:52;;;;;;;6.35;4.68;;;16.90;99.90;;;;;;2622520;46;20759;31
2022/07/03 00:09:29;;;;;;;6.60;3.80;;;16.90;99.90;;;;;;2603395;54;20136;31
2022/07/03 00:12:03;;;;;;;13.43;4.70;;;16.80;99.90;;;;;;2603447;54;20088;31
2022/07/03 00:14:37;;;;;;;5.05;3.90;;;16.70;99.90;;;;;;2603631;54;20876;31
2022/07/03 00:17:12;;;;;;;6.20;4.00;;;16.70;99.90;;;;;;2603393;54;20136;31
2022/07/03 00:19:46;;;;;;;4.40;3.20;;;16.60;99.90;;;;;;2603758;54;20136;31
2022/07/03 00:22:21;;;;;;;5.82;4.53;;;16.60;99.90;;;;;;2622151;46;20949;31
2022/07/03 00:25:01;;;;;;;9.43;4.60;;;16.60;99.90;;;;;;2603421;54;21628;31
2022/07/03 00:27:35;;;;;;;6.95;4.30;;;16.60;99.90;;;;;;2603609;54;20849;31
2022/07/03 00:30:10;;;;;;;8.20;5.30;;;16.50;99.90;;;;;;2603554;54;20019;31
2022/07/03 00:32:45;;;;;;;5.55;4.80;;;16.50;99.90;;;;;;2622014;46;20026;31
2022/07/03 00:35:19;;;;;;;8.95;4.50;;;16.40;99.90;;;;;;2603414;54;20042;31
2022/07/03 00:37:54;;;;;;;4.10;3.20;;;16.40;99.90;;;;;;2603449;54;20059;31
2022/07/03 00:40:31;;;;;;;6.30;4.97;;;16.40;99.90;;;;;;2603474;54;20181;31
2022/07/03 00:43:10;;;;;;;5.27;3.97;;;16.30;99.90;;;;;;2621676;46;21016;31
2022/07/03 00:45:48;;;;;;;4.85;3.30;;;16.30;99.90;;;;;;2602825;54;20054;31
2022/07/03 00:48:23;;;;;;;8.25;5.30;;;16.20;99.90;;;;;;2621224;46;20042;31
2022/07/03 00:50:58;;;;;;;5.55;3.67;;;16.20;99.90;;;;;;2603727;54;20034;31
2022/07/03 00:53:35;;;;;;;9.50;3.60;;;16.20;99.90;;;;;;2603276;54;20030;31
2022/07/03 00:56:10;;;;;;;4.15;3.75;;;16.20;99.90;;;;;;2621631;46;22444;31
2022/07/03 00:58:44;;;;;;;6.57;4.47;;;16.20;99.90;;;;;;2603455;54;20033;31
2022/07/03 01:01:18;;;;;;;7.27;5.13;;;16.20;99.90;;;;;;2603394;54;20112;31
2022/07/03 01:03:59;;;;;;;8.23;5.07;;;16.20;99.90;;;;;;2603480;54;20848;31
2022/07/03 01:06:37;;;;;;;8.85;5.60;;;16.20;99.90;;;;;;2603656;54;20045;31
2022/07/03 01:09:11;;;;;;;9.95;7.13;;;16.20;99.90;;;;;;2622046;46;20897;31
2022/07/03 01:11:50;;;;;;;8.77;5.53;;;16.10;99.90;;;;;;2618909;46;20778;31
2022/07/03 01:14:27;;;;;;;7.55;6.35;;;16.10;99.90;;;;;;2621795;46;20268;31
2022/07/03 01:17:01;;;;;;;6.32;4.70;;;16.00;99.90;;;;;;2603261;54;20627;31
2022/07/03 01:19:41;;;;;;;6.20;5.20;;;16.00;99.90;;;;;;2622081;46;20875;31
2022/07/03 01:22:36;;;;;;;6.03;4.93;;;16.00;99.90;;;;;;2603418;54;20888;31
2022/07/03 01:25:16;;;;;;;7.20;4.70;;;16.00;99.90;;;;;;2603139;54;20042;31
2022/07/03 01:28:10;;;;;;;6.90;4.80;;;16.00;99.90;;;;;;2603177;54;20030;31
2022/07/03 01:30:49;;;;;;;6.93;4.80;;;15.90;99.90;;;;;;2603431;54;20088;31
2022/07/03 01:33:25;;;;;;;7.53;4.10;;;15.90;99.90;;;;;;2701734;39;21366;31
2022/07/03 01:36:01;;;;;;;4.60;3.70;;;15.90;99.90;;;;;;2603382;54;20027;31
2022/07/03 01:38:37;;;;;;;6.53;4.38;;;15.80;99.90;;;;;;2603182;54;20905;31
2022/07/03 01:41:12;;;;;;;8.15;4.93;;;15.90;99.90;;;;;;2621753;46;20763;31
2022/07/03 01:43:50;;;;;;;6.53;4.13;;;15.80;99.90;;;;;;2603468;54;20041;31
2022/07/03 01:46:24;;;;;;;7.30;5.17;;;15.70;99.90;;;;;;2603248;54;20591;31
2022/07/03 01:48:59;;;;;;;4.27;3.87;;;15.70;99.90;;;;;;2602999;54;20085;31
2022/07/03 01:51:33;;;;;;;5.40;4.57;;;15.60;99.90;;;;;;2701693;39;21317;31
2022/07/03 01:54:07;;;;;;;18.23;5.03;;;15.60;99.90;;;;;;2701798;39;21822;31
2022/07/03 01:56:44;;;;;;;7.05;5.03;;;15.60;99.90;;;;;;2621567;46;20033;31
2022/07/03 01:59:21;;;;;;;8.15;6.40;;;15.60;99.90;;;;;;2603194;54;20085;31
2022/07/03 02:02:00;;;;;;;6.97;6.25;;;15.60;99.90;;;;;;2603477;54;20026;31
2022/07/03 02:04:37;;;;;;;10.70;7.20;;;15.50;99.90;;;;;;2603200;54;20032;31
2022/07/03 02:07:12;;;;;;;10.10;6.70;;;15.50;99.90;;;;;;2603339;54;20052;31
2022/07/03 02:09:47;;;;;;;12.07;6.83;;;15.50;99.90;;;;;;2603107;54;20779;31
2022/07/03 02:12:22;;;;;;;6.95;6.28;;;15.40;99.90;;;;;;2621664;46;20053;31
2022/07/03 02:15:01;;;;;;;7.20;5.37;;;15.40;99.90;;;;;;2772993;31;21447;31
2022/07/03 02:17:39;;;;;;;8.75;6.25;;;15.40;99.90;;;;;;2621692;46;20042;31
2022/07/03 02:20:18;;;;;;;10.30;7.80;;;15.30;99.90;;;;;;2773080;31;21425;31
2022/07/03 02:22:56;;;;;;;9.05;6.30;;;15.30;99.90;;;;;;2603035;54;20023;31
2022/07/03 02:25:34;;;;;;;7.10;6.27;;;15.40;99.90;;;;;;2621385;46;20908;31
2022/07/03 02:28:09;;;;;;;7.63;6.18;;;15.30;99.90;;;;;;2602764;54;20086;31
2022/07/03 02:30:48;;;;;;;9.60;5.93;;;15.30;99.90;;;;;;2701671;39;21364;31
2022/07/03 02:33:27;;;;;;;7.75;5.95;;;15.30;99.90;;;;;;2603047;54;20631;31
2022/07/03 02:36:01;;;;;;;8.27;6.40;;;15.20;99.90;;;;;;2701402;39;21601;31
2022/07/03 02:38:35;;;;;;;7.15;4.93;;;15.10;99.90;;;;;;2621490;46;20027;31
2022/07/03 02:41:12;;;;;;;8.48;5.45;;;15.20;99.90;;;;;;2603144;54;20838;31
2022/07/03 02:43:52;;;;;;;10.65;7.30;;;15.10;99.90;;;;;;2621342;46;20895;31
2022/07/03 02:46:52;;;;;;;6.47;5.22;;;15.10;99.90;;;;;;2603161;54;20027;31
2022/07/03 02:49:52;;;;;;;6.10;5.10;;;15.10;99.90;;;;;;2602939;54;20858;31
2022/07/03 02:52:36;;;;;;;7.32;6.63;;;15.00;99.90;;;;;;2603047;54;20751;31
2022/07/03 02:55:13;;;;;;;8.95;6.80;;;15.00;99.90;;;;;;2602765;54;20060;31
2022/07/03 02:57:53;;;;;;;8.60;7.10;;;14.90;99.90;;;;;;2602392;54;20768;31
2022/07/03 03:00:29;;;;;;;10.20;6.70;;;14.90;99.90;;;;;;2601921;54;20910;31
2022/07/03 03:03:07;;;;;;;8.35;5.95;;;14.90;99.90;;;;;;2617575;46;21484;31
2022/07/03 03:05:47;;;;;;;9.83;8.77;;;15.00;99.90;;;;;;2602927;54;20049;31
2022/07/03 03:08:27;;;;;;;7.63;6.85;;;14.90;99.90;;;;;;2602806;54;19941;31
2022/07/03 03:11:06;;;;;;;7.22;6.53;;;14.90;99.90;;;;;;2602916;54;20144;31
2022/07/03 03:13:44;;;;;;;7.15;6.45;;;14.80;99.90;;;;;;2613146;46;20034;31
2022/07/03 03:16:22;;;;;;;5.18;4.68;;;14.80;99.90;;;;;;2601793;54;20882;31
2022/07/03 03:19:01;;;;;;;9.80;5.75;;;14.80;99.90;;;;;;2602569;54;20022;31
2022/07/03 03:21:40;;;;;;;8.52;6.75;;;14.90;99.90;;;;;;2621532;46;20951;31
2022/07/03 03:24:15;;;;;;;10.30;6.32;;;14.90;99.90;;;;;;2602086;54;20117;31
2022/07/03 03:26:51;;;;;;;6.80;5.40;;;15.00;99.90;;;;;;2603018;54;20026;31
2022/07/03 03:29:27;;;;;;;8.37;7.20;;;15.00;99.90;;;;;;2621402;46;20026;31
2022/07/03 03:32:03;;;;;;;;;;;15.10;99.90;;;;;;2603140;54;20027;31
2022/07/03 03:34:41;;;;;;;6.80;6.10;;;15.10;99.90;;;;;;2603057;54;19941;31
2022/07/03 03:37:16;;;;;;;8.02;5.57;;;15.20;99.90;;;;;;2602721;54;20057;31
2022/07/03 03:39:51;;;;;;;9.20;7.50;;;15.30;99.90;;;;;;2602239;54;20959;31
2022/07/03 03:42:27;;;;;;;14.15;6.60;;;15.50;99.90;;;;;;2602070;54;20953;31
2022/07/03 03:45:06;;;;;;;7.90;6.15;;;15.60;99.90;;;;;;2621440;47;20889;31
2022/07/03 03:47:44;;;;;;;8.00;6.20;;;15.80;99.90;;;;;;2602937;54;20023;31
2022/07/03 03:50:19;;;;;;;9.73;6.83;;;16.00;99.90;;;;;;2602711;54;20111;31
2022/07/03 03:52:57;;;;;;;7.40;5.75;;;16.00;99.90;;;;;;2602140;54;20777;31
2022/07/03 03:55:32;;;;;;;9.00;5.83;;;16.20;99.90;;;;;;2601924;54;20018;31
2022/07/03 03:58:07;;;;;;;9.10;7.10;;;16.30;99.90;;;;;;2602888;54;21014;31
2022/07/03 04:00:43;;;;;;;6.50;5.60;;;16.50;99.90;;;;;;2602815;54;20037;31
2022/07/03 04:03:18;;;;;;;6.30;5.80;;;16.70;99.90;;;;;;2620762;47;20068;31
2022/07/03 04:05:53;;;;;;;6.68;5.65;;;16.90;99.90;;;;;;2602939;54;20803;31
2022/07/03 04:08:31;;;;;;;6.97;5.60;;;17.10;99.90;;;;;;2601989;54;20041;31
2022/07/03 04:11:06;;;;;;;9.52;6.15;;;17.20;99.90;;;;;;2602048;54;20022;31
2022/07/03 04:13:41;;;;;;;6.72;6.03;;;17.50;99.90;;;;;;2602884;54;20029;31
2022/07/03 04:16:18;;;;;;;7.68;6.03;;;17.60;99.90;;;;;;2602885;54;20022;31
2022/07/03 04:18:53;;;;;;;7.15;5.93;;;17.80;99.90;;;;;;2602138;54;20907;31
2022/07/03 04:21:30;;;;;;;6.65;5.53;;;17.90;99.90;;;;;;2602522;54;20820;31
2022/07/03 04:24:11;;;;;;;9.63;6.45;;;18.10;99.90;;;;;;2602624;54;20090;31
2022/07/03 04:26:45;;;;;;;7.10;5.60;;;18.20;99.90;;;;;;2603191;54;20854;31
2022/07/03 04:29:20;;;;;;;12.18;6.15;;;18.40;99.90;;;;;;2603154;54;20130;31
2022/07/03 04:31:56;;;;;;;5.67;5.17;;;18.60;99.90;;;;;;2602611;54;20904;31
2022/07/03 04:34:32;;;;;;;9.90;5.43;;;18.80;99.90;;;;;;2603530;54;20025;31
2022/07/03 04:37:08;;;;;;;6.88;5.38;;;19.00;99.90;;;;;;2621887;46;20242;31
2022/07/03 04:39:46;;;;;;;7.45;5.20;;;19.20;99.90;;;;;;2602789;54;20064;31
2022/07/03 04:42:23;;;;;;;7.67;6.03;;;19.50;99.90;;;;;;2603395;54;20089;31
2022/07/03 04:45:00;;;;;;;7.10;5.85;;;19.70;99.90;;;;;;2602603;54;20150;31
2022/07/03 04:47:35;;;;;;;8.03;5.80;;;19.80;99.90;;;;;;2602682;54;20057;31
2022/07/03 04:50:12;;;;;;;10.10;6.30;;;19.90;99.90;;;;;;2603384;54;20866;31
2022/07/03 04:52:47;;;;;;;7.30;6.20;;;20.00;99.90;;;;;;2773256;31;20590;31
2022/07/03 04:55:27;;;;;;;7.87;6.17;;;20.10;99.90;;;;;;2621630;46;20224;31
2022/07/03 04:58:02;;;;;;;7.57;6.30;;;20.20;99.90;;;;;;2621984;46;21087;31
2022/07/03 05:00:40;;;;;;;10.47;5.90;;;20.40;99.90;;;;;;2603283;54;20880;31
2022/07/03 05:03:18;;;;;;;8.75;5.80;;;20.50;99.90;;;;;;2606134;46;21151;31
2022/07/03 05:05:55;;;;;;;6.53;5.80;;;20.70;99.90;;;;;;2602287;54;20940;31
2022/07/03 05:08:31;;;;;;;6.00;5.40;;;20.80;99.90;;;;;;2602198;54;20034;31
2022/07/03 05:11:09;;;;;;;9.00;6.05;;;21.10;99.90;;;;;;2614317;46;20884;31
2022/07/03 05:13:47;;;;;;;6.13;5.53;;;21.30;99.90;;;;;;2603203;54;20057;31
2022/07/03 05:16:24;;;;;;;5.97;4.87;;;21.40;99.90;;;;;;2621448;46;20782;31
2022/07/03 05:18:58;;;;;;;6.93;5.43;;;21.60;99.90;;;;;;2621596;46;20053;31
2022/07/03 05:21:33;;;;;;;6.40;5.60;;;21.70;99.90;;;;;;2603288;54;20023;31
2022/07/03 05:24:10;;;;;;;6.53;5.70;;;21.70;99.90;;;;;;2602386;54;21261;31
2022/07/03 05:26:52;;;;;;;6.40;5.15;;;21.80;99.90;;;;;;2602376;54;20991;31
2022/07/03 05:29:28;;;;;;;6.40;5.80;;;21.80;99.90;;;;;;2602666;54;20103;31
2022/07/03 05:32:11;;;;;;;6.65;5.63;;;21.70;99.90;;;;;;2602335;54;20904;31
2022/07/03 05:34:49;;;;;;;7.90;6.30;;;21.60;99.90;;;;;;2603421;54;20903;31
2022/07/03 05:37:22;;;;;;;6.25;5.57;;;21.60;99.90;;;;;;2602949;54;20086;31
2022/07/03 05:39:58;;;;;;;6.15;5.65;;;21.60;99.90;;;;;;2602912;54;20837;31
2022/07/03 05:42:37;;;;;;;6.60;5.30;;;21.70;99.90;;;;;;2615716;46;20030;31
2022/07/03 05:45:18;;;;;;;5.40;4.90;;;21.80;99.90;;;;;;2603325;54;20054;31
2022/07/03 05:47:53;;;;;;;7.35;4.97;;;22.00;99.90;;;;;;2602310;54;20072;31
2022/07/03 05:50:39;;;;;;;5.85;5.30;;;22.40;99.90;;;;;;2602319;54;20950;31
2022/07/03 05:53:14;;;;;;;8.15;6.10;;;22.60;99.90;;;;;;2603056;54;20030;31
2022/07/03 05:55:51;;;;;;;9.65;5.47;;;22.80;99.90;;;;;;2603048;54;20827;31
2022/07/03 05:58:29;;;;;;;7.10;5.75;;;22.90;99.90;;;;;;2621734;46;21002;31
2022/07/03 06:01:05;;;;;;;6.45;5.85;;;23.10;99.90;;;;;;2602973;54;20046;31
2022/07/03 06:03:42;;;;;;;;;;;23.20;99.90;;;;;;2621717;46;20054;31
2022/07/03 06:06:20;;;;;;;5.90;5.20;;;23.40;99.90;;;;;;2603245;54;20742;31
2022/07/03 06:08:55;;;;;;;6.05;5.45;;;23.50;99.90;;;;;;2611212;46;20068;31
2022/07/03 06:11:30;;;;;;;6.20;4.60;;;23.60;99.90;;;;;;2602108;54;20113;31
2022/07/03 06:14:09;;;;;;;5.20;4.32;;;23.70;99.90;;;;;;2602486;54;20043;31
2022/07/03 06:16:45;;;;;;;5.10;4.33;;;24.00;99.90;;;;;;2621571;46;20032;31
2022/07/03 06:19:22;;;;;;;4.80;4.25;;;24.10;99.90;;;;;;2603059;54;20047;31
2022/07/03 06:21:59;;;;;;;5.93;4.47;;;24.30;99.90;;;;;;2602889;54;20617;31
2022/07/03 06:24:34;;;;;;;4.45;3.47;;;24.40;99.90;;;;;;2602356;54;20782;31
2022/07/03 06:27:15;;;;;;;5.30;3.83;;;24.50;99.90;;;;;;2602218;54;20093;31
2022/07/03 06:29:53;;;;;;;4.90;4.50;;;24.60;99.90;;;;;;2602974;54;20027;31
2022/07/03 06:32:29;;;;;;;5.43;4.93;;;24.50;99.90;;;;;;2602939;54;20026;31
2022/07/03 06:35:12;;;;;;;4.95;4.55;;;24.50;99.90;;;;;;2603065;54;20904;31
2022/07/03 06:37:47;;;;;;;7.60;5.45;;;24.60;99.90;;;;;;2603121;54;20088;31
2022/07/03 06:40:21;;;;;;;5.97;5.13;;;24.50;99.90;;;;;;2621794;46;20026;31
2022/07/03 06:42:59;;;;;;;5.50;5.00;;;24.60;99.90;;;;;;2603151;54;20865;31
2022/07/03 06:45:42;;;;;;;5.00;4.60;;;24.60;99.90;;;;;;2603225;54;20738;31
2022/07/03 06:48:26;;;;;;;5.20;4.70;;;24.80;99.90;;;;;;2602893;54;20030;31
2022/07/03 06:51:02;;;;;;;7.65;4.63;;;24.80;99.90;;;;;;2602758;54;20026;31
2022/07/03 06:53:37;;;;;;;5.88;4.13;;;24.80;99.90;;;;;;2621287;46;20034;31
2022/07/03 06:56:13;;;;;;;5.05;4.55;;;25.00;99.90;;;;;;2603043;54;20026;31
2022/07/03 06:58:51;;;;;;;7.23;4.97;;;25.00;99.90;;;;;;2602877;54;20038;31
2022/07/03 07:01:31;;;;;;;5.43;4.63;;;25.00;99.90;;;;;;2603221;54;20863;31
2022/07/03 07:04:15;;;;;;;5.40;4.90;;;25.10;99.90;;;;;;2603022;54;20053;31
2022/07/03 07:06:54;;;;;;;;;;;25.30;99.90;;;;;;2603375;54;22358;31
2022/07/03 07:09:30;;;;;;;5.07;4.50;;;25.50;99.90;;;;;;2602755;54;19934;31
2022/07/03 07:12:08;;;;;;;6.63;4.05;;;25.50;99.90;;;;;;2602763;54;20036;31
2022/07/03 07:14:47;;;;;;;6.45;3.90;;;25.70;99.90;;;;;;2620669;46;20108;31
2022/07/03 07:17:29;;;;;;;3.67;3.35;;;25.70;99.90;;;;;;2602136;54;25143;31
2022/07/03 07:20:08;;;;;;;5.15;3.80;;;25.80;99.90;;;;;;2602876;54;20945;31
2022/07/03 07:22:56;;;;;;;3.85;3.45;;;25.90;99.90;;;;;;2602661;54;20935;31
2022/07/03 07:25:34;;;;;;;3.65;3.35;;;26.00;99.90;;;;;;2602451;54;20036;31
2022/07/03 07:28:18;;;;;;;3.70;3.40;;;26.20;99.90;;;;;;2602688;54;20859;31
2022/07/03 07:30:58;;;;;;;3.90;3.60;;;26.30;99.90;;;;;;2602158;54;20226;31
2022/07/03 07:33:37;;;;;;;3.45;2.80;;;26.30;99.90;;;;;;2621202;46;20065;31
2022/07/03 07:36:24;;;;;;;4.88;3.80;;;26.40;99.90;;;;;;2601990;54;20049;31
2022/07/03 07:39:04;;;;;;;3.85;3.50;;;26.40;99.90;;;;;;2602890;54;20031;31
2022/07/03 07:41:40;;;;;;;3.38;3.08;;;26.50;99.90;;;;;;2601986;54;19942;31
2022/07/03 07:44:30;;;;;;;3.17;2.83;;;26.80;99.90;;;;;;2602731;54;20136;31
2022/07/03 07:47:08;;;;;;;3.75;2.90;;;26.90;99.90;;;;;;2602234;54;20841;31
2022/07/03 07:49:44;;;;;;;4.80;2.38;;;27.10;99.90;;;;;;2602683;54;20235;31
2022/07/03 07:52:27;;;;;;;2.88;2.67;;;27.40;99.90;;;;;;2602266;54;20867;31
2022/07/03 07:55:01;;;;;;;4.03;2.20;;;27.60;99.90;;;;;;2602718;54;20954;31
2022/07/03 07:57:45;;;;;;;2.33;2.05;;;27.20;99.90;;;;;;2602646;54;20880;31
2022/07/03 08:00:24;;;;;;;2.92;2.15;;;26.90;99.90;;;;;;2601842;54;20046;31
2022/07/03 08:05:52;;;;;;;3.13;2.55;;;26.50;99.90;;;;;;2603505;54;20868;31
2022/07/03 08:08:32;;;;;;;2.85;2.50;;;26.50;99.90;;;;;;2603494;54;20031;31
2022/07/03 08:13:56;;;;;;;2.40;2.13;;;26.30;99.90;;;;;;2603085;54;20038;31
2022/07/03 08:16:31;;;;;;;3.45;2.05;;;26.50;99.90;;;;;;2603204;54;20834;31
2022/07/03 08:19:08;;;;;;;3.60;2.45;;;26.90;99.90;;;;;;2603313;54;20026;31
2022/07/03 08:21:45;;;;;;;3.43;2.10;;;27.00;99.90;;;;;;2603314;54;20049;31
2022/07/03 08:24:28;;;;;;;2.35;1.95;;;27.10;99.90;;;;;;2603190;54;20663;31
2022/07/03 08:27:04;;;;;;;2.10;1.83;;;27.00;99.90;;;;;;2603201;54;20036;31
2022/07/03 08:29:40;;;;;;;1.80;1.70;;;27.10;99.90;;;;;;2603460;54;20246;31
2022/07/03 08:32:16;;;;;;;2.33;1.67;;;27.20;99.90;;;;;;2621717;46;20124;31
2022/07/03 08:34:52;;;;;;;2.45;1.65;;;26.90;99.90;;;;;;2603392;54;20108;31
2022/07/03 08:37:32;;;;;;;2.47;1.90;;;26.50;99.90;;;;;;2602653;54;22489;31
2022/07/03 08:40:11;;;;;;;2.75;1.60;;;26.20;99.90;;;;;;2719938;39;20510;31
2022/07/03 08:42:48;;;;;;;2.27;1.70;;;26.10;99.90;;;;;;2603322;54;20033;31
2022/07/03 08:45:24;;;;;;;2.25;2.05;;;26.30;99.90;;;;;;2603227;54;20048;31
2022/07/03 08:48:07;;;;;;;2.97;2.08;;;26.30;99.90;;;;;;2603200;54;20115;31
2022/07/03 08:50:41;;;;;;;3.65;2.15;;;26.20;99.90;;;;;;2622054;46;20052;31
2022/07/03 08:53:19;;;;;;;3.15;2.35;;;26.20;99.90;;;;;;2620586;46;20905;31
2022/07/03 08:55:58;;;;;;;2.30;1.90;;;25.90;99.90;;;;;;2603189;54;20108;31
2022/07/03 08:58:35;;;;;;;2.20;2.00;;;25.70;99.90;;;;;;2702031;39;21375;31
2022/07/03 09:01:16;;;;;;;2.35;2.15;;;25.80;99.90;;;;;;2603227;54;20046;31
2022/07/03 09:03:51;;;;;;;2.20;1.90;;;25.90;99.90;;;;;;2603384;54;20930;31
2022/07/03 09:06:33;;;;;;;3.05;2.13;;;26.20;99.90;;;;;;2621562;46;20031;31
2022/07/03 09:09:10;;;;;;;1.85;1.75;;;26.50;99.90;;;;;;2621953;46;20770;31
2022/07/03 09:11:48;;;;;;;1.90;1.70;;;26.90;99.90;;;;;;2701756;39;21359;31
2022/07/03 09:14:26;;;;;;;2.08;1.75;;;27.10;99.90;;;;;;2602183;54;20728;31
2022/07/03 09:17:02;;;;;;;2.00;1.70;;;27.00;99.90;;;;;;2617011;46;20030;31
2022/07/03 09:19:43;;;;;;;1.38;1.27;;;26.70;99.90;;;;;;2603324;54;20889;31
2022/07/03 09:22:24;;;;;;;2.08;1.85;;;26.50;99.90;;;;;;2603210;54;20091;31
2022/07/03 09:25:09;;;;;;;2.15;1.92;;;26.50;99.90;;;;;;2602840;54;20910;31
2022/07/03 09:27:52;;;;;;;3.47;1.60;;;26.80;99.90;;;;;;2604459;46;20882;31
2022/07/03 09:30:31;;;;;;;2.22;1.40;;;26.70;99.90;;;;;;2603199;54;20081;31
2022/07/03 09:33:07;;;;;;;2.75;1.33;;;26.70;99.90;;;;;;2603131;54;21163;31
2022/07/03 09:35:42;;;;;;;3.28;1.50;;;26.40;99.90;;;;;;2603022;54;20890;31
2022/07/03 09:38:18;;;;;;;3.50;2.45;;;26.30;99.90;;;;;;2603200;54;20030;31
2022/07/03 09:40:57;;;;;;;3.75;1.40;;;26.20;99.90;;;;;;2603101;54;20893;31
2022/07/03 09:43:34;;;;;;;2.60;1.50;;;26.20;99.90;;;;;;2603217;54;20030;31
2022/07/03 09:46:08;;;;;;;1.23;1.13;;;26.10;99.90;;;;;;2603174;54;21049;31
2022/07/03 09:48:44;;;;;;;1.33;1.08;;;26.40;99.90;;;;;;2603218;54;20038;31
2022/07/03 09:51:25;;;;;;;1.25;1.00;;;26.70;99.20;;;;;;2603035;54;20838;31
2022/07/03 09:54:02;;;;;;;1.63;1.05;;;27.00;99.00;;;;;;2602279;54;20027;31
2022/07/03 09:56:42;;;;;;;1.25;1.15;;;27.30;98.60;;;;;;2603178;54;20069;31
2022/07/03 09:59:20;;;;;;;1.10;1.00;;;27.40;98.60;;;;;;2603003;54;20038;31
2022/07/03 10:02:03;;;;;;;1.23;1.13;;;27.40;98.20;;;;;;2621257;46;20805;31
2022/07/03 10:04:39;;;;;;;1.30;1.20;;;27.50;97.30;;;;;;2602924;54;20027;31
2022/07/03 10:07:18;;;;;;;2.00;1.25;;;27.50;97.90;;;;;;2602104;54;20932;31
2022/07/03 10:10:01;;;;;;;1.10;0.90;;;27.60;97.20;;;;;;2603149;54;20026;31
2022/07/03 10:12:37;;;;;;;1.20;1.10;;;27.70;97.00;;;;;;2602998;54;20054;31
2022/07/03 10:15:18;;;;;;;1.70;1.50;;;27.50;97.20;;;;;;2603038;54;20030;31
2022/07/03 10:17:53;;;;;;;1.95;1.30;;;27.50;97.00;;;;;;2602979;54;20906;31
2022/07/03 10:20:33;;;;;;;1.80;1.00;;;27.60;97.20;;;;;;2602903;54;20234;31
2022/07/03 10:23:10;;;;;;;3.30;1.30;;;27.60;97.00;;;;;;2602948;54;20251;31
2022/07/03 10:25:50;;;;;;;2.05;1.00;;;27.50;96.60;;;;;;2602451;54;20023;31
2022/07/03 10:28:24;;;;;;;1.15;0.85;;;27.70;96.90;;;;;;2603029;54;21155;31
2022/07/03 10:31:01;;;;;;;1.38;1.17;;;27.60;96.90;;;;;;2602747;54;20033;31
2022/07/03 10:33:38;;;;;;;1.10;1.00;;;27.60;96.80;;;;;;2601994;54;20042;31
2022/07/03 10:36:13;;;;;;;1.45;1.10;;;27.40;96.70;;;;;;2602729;54;20038;31
2022/07/03 10:38:53;;;;;;;;;;;27.20;96.90;;;;;;2603017;54;20903;31
2022/07/03 10:47:07;;;;;;;1.48;1.13;;;27.50;96.80;;;;;;2602948;54;20902;31
2022/07/03 10:49:50;;;;;;;2.00;1.30;;;27.70;96.60;;;;;;2602236;54;20025;31
2022/07/03 10:52:28;;;;;;;4.40;1.25;;;27.60;96.40;;;;;;2603037;54;20033;31
2022/07/03 10:55:03;;;;;;;2.00;1.20;;;27.40;96.20;;;;;;2612171;46;20931;31
2022/07/03 10:57:41;;;;;;;1.83;1.30;;;27.30;96.30;;;;;;2602746;54;20298;31
2022/07/03 11:00:20;;;;;;;1.25;1.10;;;27.40;96.70;;;;;;2601935;54;20028;31
2022/07/03 11:03:05;;;;;;;1.70;1.27;;;27.50;96.10;;;;;;2602759;54;20030;31
2022/07/03 11:17:09;;;;;;;1.40;1.10;;;27.80;95.60;;;;;;2602599;54;20901;31
2022/07/03 11:22:48;;;;;;;2.92;1.42;;;28.20;95.60;;;;;;2602686;54;20747;31
2022/07/03 11:25:27;;;;;;;3.00;1.50;;;28.20;95.20;;;;;;2602851;54;20053;31
2022/07/03 11:28:03;;;;;;;1.60;1.45;;;28.10;94.90;;;;;;2620943;46;20028;31
2022/07/03 11:30:41;;;;;;;1.80;1.30;;;28.10;95.10;;;;;;2602412;54;20033;31
2022/07/03 11:33:15;;;;;;;1.92;1.38;;;28.20;94.80;;;;;;2602754;54;20857;31
2022/07/03 11:35:57;;;;;;;1.70;1.45;;;28.00;94.80;;;;;;2700607;39;20520;31
2022/07/03 11:38:33;;;;;;;1.23;1.03;;;28.00;95.30;;;;;;2621215;46;20913;31
2022/07/03 11:41:15;;;;;;;2.53;1.40;;;28.00;94.90;;;;;;2602484;54;20335;31
2022/07/03 11:44:14;;;;;;;1.20;1.00;;;28.00;95.20;;;;;;2602668;54;20942;31
2022/07/03 11:46:55;;;;;;;1.30;1.00;;;28.10;95.60;;;;;;2621316;47;20828;31
2022/07/03 11:49:35;;;;;;;2.20;1.10;;;28.10;95.00;;;;;;2620155;47;20997;31
2022/07/03 11:52:09;;;;;;;1.10;1.00;;;28.10;95.10;;;;;;2602634;54;19934;31
2022/07/03 11:54:55;;;;;;;1.85;1.17;;;28.00;94.80;;;;;;2621006;47;20232;31
2022/07/03 11:57:29;;;;;;;1.70;1.55;;;27.80;94.70;;;;;;2621243;47;20023;31
2022/07/03 12:03:03;;;;;;;2.08;1.48;;;27.70;94.50;;;;;;2602324;54;20278;31
2022/07/03 12:05:39;;;;;;;1.50;1.40;;;27.70;94.40;;;;;;2602696;54;21461;31
2022/07/03 12:08:11;;;;;;;;;;;27.70;94.50;;;;;;2602796;54;21946;31
2022/07/03 12:10:49;;;;;;;1.92;1.30;;;27.70;94.30;;;;;;2602467;54;20492;31
2022/07/03 12:13:30;;;;;;;3.10;1.50;;;27.80;94.20;;;;;;2602632;54;20027;31
2022/07/03 12:16:36;;;;;;;1.92;1.60;;;27.90;95.40;;;;;;2602405;54;20336;31
2022/07/03 12:19:18;;;;;;;1.55;1.02;;;27.90;94.10;;;;;;2602468;54;19941;31
2022/07/03 12:22:07;;;;;;;1.70;1.20;;;27.80;94.80;;;;;;2700119;39;20480;31
2022/07/03 12:24:42;;;;;;;2.35;1.10;;;27.80;94.20;;;;;;2602514;54;21622;31
2022/07/03 12:27:22;;;;;;;1.75;1.10;;;27.90;94.00;;;;;;2700893;39;20584;31
2022/07/03 12:29:58;;;;;;;1.58;1.20;;;27.80;94.30;;;;;;2602461;54;20916;31
2022/07/03 12:32:36;;;;;;;1.50;1.40;;;27.90;94.10;;;;;;2602401;54;20108;31
2022/07/03 12:35:15;;;;;;;1.75;1.40;;;27.90;94.50;;;;;;2700645;39;20541;31
2022/07/03 12:37:52;;;;;;;1.20;1.10;;;27.80;94.50;;;;;;2601540;54;20037;31
2022/07/03 12:40:31;;;;;;;1.70;1.20;;;27.70;94.30;;;;;;2601442;54;20095;31
2022/07/03 12:43:10;;;;;;;3.43;1.30;;;27.70;94.50;;;;;;2601339;54;20089;31
2022/07/03 12:45:47;;;;;;;2.83;1.55;;;27.70;95.00;;;;;;2602654;47;20027;31
2022/07/03 12:48:22;;;;;;;1.80;1.35;;;27.80;94.60;;;;;;2602259;54;20776;31
2022/07/03 12:51:00;;;;;;;4.53;2.05;;;27.80;94.30;;;;;;2603345;54;20898;31
2022/07/03 12:53:37;;;;;;;4.35;2.05;;;27.70;94.10;;;;;;2603340;54;20054;31
2022/07/03 12:56:14;;;;;;;2.30;1.80;;;27.90;94.30;;;;;;2603385;54;20869;31
2022/07/03 13:01:43;;;;;;;2.70;1.63;;;27.80;94.20;;;;;;2603018;54;21064;31
2022/07/03 13:04:32;;;;;;;1.90;1.65;;;27.80;94.20;;;;;;2621548;46;20083;31
2022/07/03 13:07:11;;;;;;;8.13;2.60;;;27.80;94.10;;;;;;2603198;54;20854;31
2022/07/03 13:09:55;;;;;;;3.00;2.30;;;27.80;93.20;;;;;;2621211;46;20087;31
2022/07/03 13:12:37;;;;;;;2.55;2.00;;;27.90;95.00;;;;;;2621355;46;20100;31
2022/07/03 13:15:19;;;;;;;3.37;1.87;;;28.00;95.10;;;;;;2621675;46;20849;31
2022/07/03 13:17:59;;;;;;;2.35;2.05;;;28.10;95.00;;;;;;2621417;46;21208;31
2022/07/03 13:20:36;;;;;;;2.40;2.20;;;28.20;94.20;;;;;;2603072;54;20056;31
2022/07/03 13:23:11;;;;;;;2.15;1.92;;;28.20;93.80;;;;;;2603041;54;20946;31
2022/07/03 13:25:47;;;;;;;1.70;1.60;;;28.30;94.00;;;;;;2602942;54;20086;31
2022/07/03 13:28:26;;;;;;;1.55;1.45;;;28.40;93.40;;;;;;2603062;54;20871;31
2022/07/03 13:31:05;;;;;;;2.75;2.00;;;28.40;94.80;;;;;;2613042;46;20033;31
2022/07/03 13:33:49;;;;;;;1.92;1.73;;;28.50;93.90;;;;;;2603014;54;20834;31
2022/07/03 13:36:37;;;;;;;2.08;1.90;;;28.60;95.00;;;;;;2602231;54;20025;31
2022/07/03 13:39:14;;;;;;;6.72;1.65;;;28.60;93.60;;;;;;2603030;54;20048;31
2022/07/03 13:41:50;;;;;;;1.95;1.75;;;28.60;93.50;;;;;;2621532;46;20095;31
2022/07/03 13:44:25;;;;;;;1.65;1.40;;;28.50;94.50;;;;;;2617084;46;20040;31
2022/07/03 13:47:18;;;;;;;1.60;1.50;;;28.50;93.40;;;;;;2602790;54;20050;31
2022/07/03 13:50:00;;;;;;;3.05;1.67;;;28.50;92.70;;;;;;2602151;54;20120;31
2022/07/03 13:52:39;;;;;;;1.73;1.50;;;28.40;93.20;;;;;;2602993;54;20027;31
2022/07/03 13:55:31;;;;;;;1.95;1.75;;;28.40;93.10;;;;;;2602806;54;20973;31
2022/07/03 14:04:19;;;;;;;1.70;1.60;;;28.30;93.10;;;;;;2602944;54;20871;31
2022/07/03 14:06:56;;;;;;;2.97;2.10;;;28.30;93.30;;;;;;2603189;54;20731;31
2022/07/03 14:09:34;;;;;;;2.83;1.70;;;28.30;93.00;;;;;;2621379;46;20946;31
2022/07/03 14:12:12;;;;;;;2.35;1.90;;;28.30;92.70;;;;;;2621099;46;20984;31
2022/07/03 14:14:48;;;;;;;8.45;2.47;;;28.30;92.80;;;;;;2603034;54;20878;31
2022/07/03 14:17:27;;;;;;;2.40;2.20;;;28.30;93.00;;;;;;2701354;39;20496;31
2022/07/03 14:20:08;;;;;;;3.92;1.92;;;28.20;92.60;;;;;;2603025;54;20027;31
2022/07/03 14:22:42;;;;;;;1.83;1.73;;;28.20;92.80;;;;;;2602694;54;20116;31
2022/07/03 14:25:23;;;;;;;2.20;1.70;;;28.20;92.50;;;;;;2621157;46;19941;31
2022/07/03 14:33:31;;;;;;;1.95;1.75;;;28.20;93.00;;;;;;2602977;54;20085;31
2022/07/03 14:36:09;;;;;;;2.28;2.00;;;28.20;92.70;;;;;;2621390;46;20026;31
2022/07/03 14:39:04;;;;;;;3.13;2.00;;;28.20;93.00;;;;;;2602947;54;20945;31